Time;durP1;ratioP1;P1;durP2;ratioP2;P2;SDS_P1;SDS_P2;PMS_P1;PMS_P2;Temp;Humidity;BMP_temperature;BMP_pressure;BME280_temperature;BME280_humidity;BME280_pressure;Samples;Min_cycle;Max_cycle;Signal;HPM_P1;HPM_P2
2022/01/16 00:00:51;;;;;;;22.53;14.60;;;;;;;-1.65;100.00;97099.69;5050730;28;20436;-76
2022/01/16 00:06:03;;;;;;;19.37;12.30;;;;;;;-1.44;100.00;97134.59;5050450;28;20939;-76
2022/01/16 00:08:30;;;;;;;21.00;13.73;;;;;;;-1.52;100.00;97127.94;5067010;28;20949;-77
2022/01/16 00:10:59;;;;;;;23.03;14.53;;;;;;;-1.61;100.00;97091.22;5051722;28;20491;-76
2022/01/16 00:13:26;;;;;;;21.73;13.93;;;;;;;-1.61;100.00;97061.91;5050657;28;20844;-77
2022/01/16 00:15:53;;;;;;;21.50;14.83;;;;;;;-1.61;100.00;97052.31;5051884;28;20444;-77
2022/01/16 00:18:26;;;;;;;22.70;13.83;;;;;;;-1.28;100.00;97126.88;5050591;28;20491;-76
2022/01/16 00:20:53;;;;;;;25.03;14.13;;;;;;;-1.28;100.00;97128.69;5050574;28;21120;-77
2022/01/16 00:23:25;;;;;;;24.87;14.50;;;;;;;-1.52;100.00;97078.69;5053147;28;20448;-77
2022/01/16 00:25:54;;;;;;;22.37;14.60;;;;;;;-1.22;100.00;97128.53;5071007;28;20429;-76
2022/01/16 00:28:23;;;;;;;25.33;14.80;;;;;;;-1.26;100.00;97105.88;5054314;28;20476;-76
2022/01/16 00:30:51;;;;;;;22.97;15.27;;;;;;;-1.19;100.00;97116.94;5070942;28;20439;-77
2022/01/16 00:33:19;;;;;;;29.27;14.20;;;;;;;-1.36;100.00;97101.28;5054467;28;20464;-77
2022/01/16 00:35:45;;;;;;;22.37;13.20;;;;;;;-0.97;100.00;97101.47;5054061;28;20822;-77
2022/01/16 00:38:12;;;;;;;26.53;13.00;;;;;;;-1.31;100.00;97052.13;5055179;28;20449;-76
2022/01/16 00:40:39;;;;;;;24.20;15.90;;;;;;;-1.16;100.00;97076.75;5053837;28;20447;-76
2022/01/16 00:43:05;;;;;;;26.70;14.70;;;;;;;-1.18;100.00;97091.78;5037976;28;20488;-77
2022/01/16 00:45:35;;;;;;;29.90;15.47;;;;;;;-1.66;100.00;97039.28;5054286;28;20428;-76
2022/01/16 00:48:04;;;;;;;31.13;17.07;;;;;;;-1.33;100.00;97072.31;5070919;28;21070;-76
2022/01/16 00:50:33;;;;;;;29.33;15.30;;;;;;;-1.46;100.00;97079.59;5055455;28;20465;-76
2022/01/16 00:53:00;;;;;;;27.53;15.50;;;;;;;-1.51;100.00;97055.13;5054442;28;20436;-76
2022/01/16 00:55:28;;;;;;;23.13;14.60;;;;;;;-1.33;100.00;97098.25;5037979;28;20441;-76
2022/01/16 00:57:54;;;;;;;35.27;15.70;;;;;;;-1.21;100.00;97085.22;5054686;28;20491;-77
2022/01/16 01:00:27;;;;;;;30.20;15.10;;;;;;;-1.65;100.00;97014.13;5054596;28;20483;-76
2022/01/16 01:02:54;;;;;;;27.90;15.60;;;;;;;-1.35;100.00;97063.19;5054321;28;20487;-77
2022/01/16 01:05:21;;;;;;;31.17;16.30;;;;;;;-1.32;100.00;97068.72;5054381;28;20469;-76
2022/01/16 01:07:49;;;;;;;37.67;17.93;;;;;;;-1.33;100.00;97074.13;5037567;28;20510;-75
2022/01/16 01:10:36;;;;;;;32.60;17.77;;;;;;;-1.28;100.00;97067.22;5038632;28;20990;-76
2022/01/16 01:13:10;;;;;;;29.30;17.57;;;;;;;-1.26;100.00;97044.41;5070201;28;20471;-76
2022/01/16 01:15:48;;;;;;;31.40;16.73;;;;;;;-1.22;100.00;97081.84;5055141;28;21065;-75
2022/01/16 01:18:17;;;;;;;31.03;18.27;;;;;;;-1.48;100.00;97033.13;5053743;28;20983;-77
2022/01/16 01:20:47;;;;;;;25.43;17.00;;;;;;;-0.93;100.00;97087.81;5037020;28;20442;-77
2022/01/16 01:23:13;;;;;;;25.53;17.03;;;;;;;-0.87;100.00;97085.31;5053005;28;20461;-76
2022/01/16 01:25:42;;;;;;;28.93;17.60;;;;;;;-1.13;100.00;97079.66;5052974;28;20502;-76
2022/01/16 01:28:09;;;;;;;27.10;17.40;;;;;;;-1.28;100.00;97004.19;5069518;28;20519;-77
2022/01/16 01:30:38;;;;;;;29.60;18.37;;;;;;;-0.90;100.00;97004.28;5053153;28;20484;-76
2022/01/16 01:33:05;;;;;;;24.53;15.27;;;;;;;-1.00;100.00;96969.59;5052618;28;20948;-76
2022/01/16 01:35:39;;;;;;;23.40;15.93;;;;;;;-0.90;100.00;96991.31;5052979;28;20469;-77
2022/01/16 01:38:07;;;;;;;27.57;17.57;;;;;;;-1.03;100.00;96965.69;5052983;28;20881;-77
2022/01/16 01:40:36;;;;;;;28.17;18.50;;;;;;;-1.10;100.00;96969.44;5053529;28;20433;-76
2022/01/16 01:51:01;;;;;;;26.43;16.70;;;;;;;-0.98;100.00;97040.22;5053082;28;20477;-76
2022/01/16 01:51:44;;;;;;;25.70;17.60;;;;;;;-0.87;100.00;97043.78;5053151;28;20475;-76
2022/01/16 01:54:12;;;;;;;23.03;14.63;;;;;;;-0.85;100.00;97049.50;5036921;28;20441;-76
2022/01/16 01:56:39;;;;;;;25.50;16.93;;;;;;;-1.31;100.00;96978.72;5052819;28;20507;-77
2022/01/16 01:59:07;;;;;;;28.07;17.00;;;;;;;-0.98;100.00;97025.44;5036282;28;20437;-76
2022/01/16 02:01:34;;;;;;;22.03;14.73;;;;;;;-1.07;100.00;97016.47;5052606;28;20849;-75
2022/01/16 02:04:01;;;;;;;27.43;16.43;;;;;;;-1.22;100.00;97000.63;5054024;28;20483;-76
2022/01/16 02:06:30;;;;;;;29.57;18.30;;;;;;;-1.00;100.00;97032.69;5052523;28;20868;-76
2022/01/16 02:09:00;;;;;;;29.33;17.03;;;;;;;-0.93;100.00;97027.34;5052615;28;20514;-75
2022/01/16 02:11:29;;;;;;;26.87;15.77;;;;;;;-1.86;100.00;96879.03;5053112;28;20441;-77
2022/01/16 02:33:21;;;;;;;22.93;14.97;;;;;;;-1.10;100.00;96998.78;5053666;28;20510;-76
2022/01/16 02:35:38;;;;;;;28.43;16.30;;;;;;;-1.01;100.00;97012.94;5052475;28;20897;-76
2022/01/16 02:38:06;;;;;;;24.50;15.03;;;;;;;-0.97;100.00;97011.44;5052117;28;20504;-76
2022/01/16 02:40:33;;;;;;;26.77;15.90;;;;;;;-1.20;100.00;96967.50;5035462;28;20472;-77
2022/01/16 02:42:59;;;;;;;24.57;15.40;;;;;;;-1.12;100.00;96982.66;5052546;28;20446;-76
2022/01/16 02:45:33;;;;;;;28.37;15.57;;;;;;;-1.57;100.00;96904.91;5051468;28;20437;-76
2022/01/16 02:48:05;;;;;;;26.57;17.10;;;;;;;-0.96;100.00;97014.81;5052424;28;20982;-76
2022/01/16 02:50:35;;;;;;;25.90;15.87;;;;;;;-2.15;100.00;96834.22;5052570;28;20965;-76
2022/01/16 02:53:08;;;;;;;26.50;17.47;;;;;;;-1.01;100.00;97022.53;5052557;28;20898;-76
2022/01/16 02:55:40;;;;;;;25.67;16.80;;;;;;;-0.99;100.00;97017.88;5037707;28;20464;-76
2022/01/16 02:58:07;;;;;;;26.70;15.73;;;;;;;-1.27;100.00;96975.41;5054877;28;20514;-76
2022/01/16 03:00:34;;;;;;;24.80;15.63;;;;;;;-0.84;100.00;97014.75;5052850;28;20933;-75
2022/01/16 03:03:01;;;;;;;28.17;18.27;;;;;;;-1.20;100.00;96964.91;5051881;28;20980;-76
2022/01/16 03:05:27;;;;;;;30.00;17.33;;;;;;;-1.01;100.00;97002.56;5068784;28;20448;-76
2022/01/16 03:07:54;;;;;;;25.40;17.20;;;;;;;-1.03;100.00;96996.81;5054648;28;20871;-76
2022/01/16 03:12:52;;;;;;;24.80;15.57;;;;;;;-1.10;100.00;96972.81;5051517;28;20964;-75
2022/01/16 03:15:19;;;;;;;25.83;17.20;;;;;;;-0.79;100.00;97023.41;5050945;28;20496;-76
2022/01/16 03:23:18;;;;;;;24.83;16.90;;;;;;;-0.79;100.00;97017.44;5053432;28;20441;-76
2022/01/16 03:25:46;;;;;;;24.90;17.47;;;;;;;-1.14;100.00;96968.34;5052997;28;20432;-76
2022/01/16 03:28:13;;;;;;;27.90;16.80;;;;;;;-0.87;100.00;97007.44;5069428;28;20465;-76
2022/01/16 03:30:40;;;;;;;31.30;16.13;;;;;;;-0.83;100.00;96993.75;5068735;28;20473;-75
2022/01/16 03:33:07;;;;;;;32.60;18.63;;;;;;;-0.87;100.00;96997.84;5052371;28;20556;-75
2022/01/16 03:35:34;;;;;;;30.03;20.47;;;;;;;-0.87;100.00;96997.84;5051689;28;20493;-76
2022/01/16 03:38:01;;;;;;;26.33;16.40;;;;;;;-1.38;100.00;96942.53;5052011;28;20636;-76
2022/01/16 03:40:28;;;;;;;29.23;19.47;;;;;;;-0.99;100.00;96973.78;5068568;28;20441;-76
2022/01/16 03:43:03;;;;;;;31.87;17.70;;;;;;;-1.20;100.00;96944.94;5052113;28;20429;-76
2022/01/16 03:45:31;;;;;;;29.03;16.73;;;;;;;-1.28;100.00;96947.91;5051635;28;20457;-77
2022/01/16 03:47:58;;;;;;;30.53;17.40;;;;;;;-1.61;100.00;96891.59;5051752;28;20992;-76
2022/01/16 03:50:25;;;;;;;37.00;18.60;;;;;;;-1.03;100.00;96972.69;5051183;28;20815;-76
2022/01/16 03:52:52;;;;;;;32.33;19.47;;;;;;;-1.10;100.00;96962.44;5068916;28;20956;-76
2022/01/16 03:55:19;;;;;;;33.30;21.13;;;;;;;-0.96;100.00;96981.09;5051998;28;20476;-76
2022/01/16 03:57:46;;;;;;;35.90;20.47;;;;;;;-0.97;100.00;96989.88;5051466;28;20500;-76
2022/01/16 04:00:13;;;;;;;29.53;20.50;;;;;;;-1.30;100.00;96920.63;5051601;28;20453;-76
2022/01/16 04:02:40;;;;;;;40.37;19.27;;;;;;;-1.09;100.00;96943.25;5051500;28;20555;-76
2022/01/16 04:05:07;;;;;;;31.23;19.10;;;;;;;-0.92;100.00;96977.00;5052746;28;21041;-76
2022/01/16 04:07:35;;;;;;;43.57;21.20;;;;;;;-0.86;100.00;96988.25;5053426;28;20479;-76
2022/01/16 04:10:07;;;;;;;34.30;19.87;;;;;;;-1.49;100.00;96899.31;5035459;28;20449;-76
2022/01/16 04:12:37;;;;;;;36.73;20.77;;;;;;;-1.39;100.00;96940.97;5051426;28;20931;-76
2022/01/16 04:17:44;;;;;;;29.60;20.27;;;;;;;-1.04;100.00;96981.50;5052152;28;20453;-76
2022/01/16 04:20:15;;;;;;;35.10;19.60;;;;;;;-1.55;100.00;96895.09;5050903;28;20431;-77
2022/01/16 04:22:43;;;;;;;38.70;20.13;;;;;;;-1.20;100.00;96944.94;5050839;28;20827;-76
2022/01/16 04:25:10;;;;;;;35.93;19.37;;;;;;;-1.32;100.00;96948.63;5050871;28;20544;-75
2022/01/16 04:27:37;;;;;;;31.40;17.03;;;;;;;-1.62;100.00;96890.03;5051659;28;20492;-76
2022/01/16 04:30:05;;;;;;;32.40;20.53;;;;;;;-1.50;100.00;96913.31;5051741;28;20445;-76
2022/01/16 04:32:31;;;;;;;31.50;17.13;;;;;;;-1.33;100.00;96944.47;5068733;28;20467;-76
2022/01/16 04:34:58;;;;;;;39.27;19.33;;;;;;;-1.23;100.00;96957.56;5052754;28;20840;-76
2022/01/16 04:37:25;;;;;;;34.60;19.50;;;;;;;-1.13;100.00;96959.53;5051677;28;20465;-76
2022/01/16 04:39:58;;;;;;;29.20;18.37;;;;;;;-1.27;100.00;96944.28;5052120;28;20805;-76
2022/01/16 04:45:11;;;;;;;34.77;17.47;;;;;;;-1.40;100.00;96916.06;5050361;28;20449;-76
2022/01/16 04:47:38;;;;;;;31.90;18.37;;;;;;;-1.20;100.00;96949.34;5066597;28;20527;-76
2022/01/16 04:50:13;;;;;;;28.80;16.07;;;;;;;-1.56;100.00;96888.31;5066386;28;20418;-76
2022/01/16 04:52:41;;;;;;;32.40;15.03;;;;;;;-1.62;100.00;96905.59;5050553;28;20491;-76
2022/01/16 04:55:09;;;;;;;27.20;16.13;;;;;;;-1.68;100.00;96892.78;5050223;28;20437;-76
2022/01/16 04:57:36;;;;;;;35.40;18.03;;;;;;;-1.65;100.00;96907.88;5050458;28;20615;-76
2022/01/16 05:00:10;;;;;;;35.73;17.87;;;;;;;-1.48;100.00;96921.63;5050585;28;20482;-76
2022/01/16 05:02:37;;;;;;;33.97;16.73;;;;;;;-1.39;100.00;96930.59;5051675;28;20457;-75
2022/01/16 05:05:04;;;;;;;37.20;18.00;;;;;;;-1.38;100.00;96926.19;5050594;28;20902;-76
2022/01/16 05:07:31;;;;;;;35.60;20.30;;;;;;;-2.05;100.00;96819.88;5050475;28;20461;-75
2022/01/16 05:09:58;;;;;;;42.67;18.20;;;;;;;-1.65;100.00;96892.31;5053770;28;20452;-76
2022/01/16 05:12:34;;;;;;;41.47;16.87;;;;;;;-1.33;100.00;96918.53;5070914;28;20511;-76
2022/01/16 05:17:57;;;;;;;30.20;17.80;;;;;;;-1.32;100.00;96900.13;5036000;28;21049;-76
2022/01/16 05:20:24;;;;;;;25.33;14.33;;;;;;;-1.26;100.00;96914.72;5053850;28;20475;-76
2022/01/16 05:22:50;;;;;;;26.97;14.13;;;;;;;-1.20;100.00;96939.75;5055090;28;20504;-76
2022/01/16 05:25:18;;;;;;;29.00;15.40;;;;;;;-1.40;100.00;96928.25;5070463;28;20465;-75
2022/01/16 05:27:45;;;;;;;33.00;17.20;;;;;;;-1.31;100.00;96934.63;5055422;28;20503;-77
2022/01/16 05:30:12;;;;;;;36.47;18.57;;;;;;;-1.29;100.00;96923.00;5054659;28;20449;-76
2022/01/16 05:32:39;;;;;;;44.50;16.67;;;;;;;-1.50;100.00;96906.31;5054358;28;20437;-75
2022/01/16 05:35:07;;;;;;;37.10;15.50;;;;;;;-2.19;100.00;96783.13;5053822;28;20960;-76
2022/01/16 05:37:34;;;;;;;28.20;16.00;;;;;;;-1.29;100.00;96920.41;5055548;28;20563;-75
2022/01/16 05:40:01;;;;;;;35.43;15.97;;;;;;;-1.52;100.00;96902.38;5055309;28;20862;-75
2022/01/16 05:42:28;;;;;;;29.53;14.80;;;;;;;-1.87;100.00;96848.97;5071664;28;20522;-76
2022/01/16 05:44:55;;;;;;;23.20;11.73;;;;;;;-1.39;100.00;96929.81;5054758;28;20565;-76
2022/01/16 05:47:21;;;;;;;24.23;11.87;;;;;;;-1.91;100.00;96849.63;5056318;28;20481;-75
2022/01/16 05:49:48;;;;;;;28.37;15.53;;;;;;;-1.58;100.00;96903.34;5055723;28;20437;-76
2022/01/16 05:52:34;;;;;;;38.00;14.50;;;;;;;-1.62;100.00;96912.56;5071826;28;20464;-76
2022/01/16 05:55:01;;;;;;;26.97;14.83;;;;;;;-1.70;100.00;96900.81;5038784;28;20472;-75
2022/01/16 05:57:28;;;;;;;30.40;14.90;;;;;;;-1.42;100.00;96943.25;5055406;28;20487;-76
2022/01/16 05:59:55;;;;;;;27.00;14.20;;;;;;;-1.33;100.00;96947.06;5056120;28;20445;-76
2022/01/16 06:02:22;;;;;;;33.70;15.93;;;;;;;-1.51;100.00;96935.84;5073883;28;20436;-74
2022/01/16 06:04:48;;;;;;;25.70;15.00;;;;;;;-1.42;100.00;96935.47;5059788;28;20461;-76
2022/01/16 06:07:16;;;;;;;30.93;14.83;;;;;;;-2.67;100.00;96748.13;5069982;28;21034;-75
2022/01/16 06:09:42;;;;;;;28.47;14.90;;;;;;;-1.65;100.00;96903.47;5053144;28;20480;-76
2022/01/16 06:12:10;;;;;;;28.27;14.60;;;;;;;-1.45;100.00;96941.13;5052833;28;20465;-76
2022/01/16 06:14:37;;;;;;;25.83;12.63;;;;;;;-1.55;100.00;96939.16;5053764;28;20866;-76
2022/01/16 06:17:04;;;;;;;28.17;11.17;;;;;;;-1.42;100.00;96964.00;5036845;28;20556;-77
2022/01/16 06:19:31;;;;;;;29.30;12.00;;;;;;;-1.79;100.00;96931.47;5052260;28;20492;-76
2022/01/16 06:21:57;;;;;;;33.87;11.77;;;;;;;-2.38;100.00;96868.75;5052346;28;20441;-75
2022/01/16 06:24:24;;;;;;;42.23;14.70;;;;;;;-2.04;100.00;96923.25;5052881;28;20465;-76
2022/01/16 06:26:51;;;;;;;29.47;13.77;;;;;;;-1.98;100.00;96939.69;5052517;28;20504;-75
2022/01/16 06:29:19;;;;;;;27.97;14.30;;;;;;;-1.89;100.00;96949.44;5036341;28;20544;-77
2022/01/16 06:31:45;;;;;;;28.43;16.30;;;;;;;-1.99;100.00;96933.72;5052736;28;20488;-76
2022/01/16 06:34:12;;;;;;;28.73;15.50;;;;;;;-1.98;100.00;96922.34;5052593;28;20473;-77
2022/01/16 06:36:39;;;;;;;44.27;14.43;;;;;;;-1.82;100.00;96944.13;5053858;28;20489;-76
2022/01/16 06:39:09;;;;;;;29.57;15.57;;;;;;;-1.61;100.00;96989.31;5069003;28;20551;-76
2022/01/16 06:41:36;;;;;;;31.77;14.50;;;;;;;-1.68;100.00;96960.97;5052801;28;20437;-76
2022/01/16 06:44:03;;;;;;;22.77;8.77;;;;;;;-1.84;100.00;96970.28;5052718;28;20866;-76
2022/01/16 06:46:30;;;;;;;22.33;12.37;;;;;;;-1.93;100.00;96971.66;5068842;28;20472;-76
2022/01/16 06:48:57;;;;;;;16.23;9.97;;;;;;;-1.92;100.00;96987.97;5052728;28;20807;-75
2022/01/16 06:51:24;;;;;;;20.50;10.03;;;;;;;-2.18;100.00;96958.19;5053800;28;21092;-76
2022/01/16 06:53:53;;;;;;;24.10;13.67;;;;;;;-1.80;100.00;96999.88;5051804;28;20449;-76
2022/01/16 06:56:20;;;;;;;24.63;13.47;;;;;;;-1.96;100.00;96974.69;5052819;28;20437;-76
2022/01/16 06:58:47;;;;;;;22.93;11.30;;;;;;;-1.86;100.00;97000.03;5052273;28;21069;-76
2022/01/16 07:01:13;;;;;;;23.13;12.97;;;;;;;-1.92;100.00;96998.34;5052032;28;20438;-76
2022/01/16 07:03:41;;;;;;;28.37;16.20;;;;;;;-3.10;100.00;96800.28;5052189;28;20971;-76
2022/01/16 07:06:07;;;;;;;20.27;12.20;;;;;;;-1.85;100.00;96976.47;5052283;28;20484;-76
2022/01/16 07:08:34;;;;;;;21.30;12.90;;;;;;;-2.12;100.00;96929.59;5069188;28;20475;-75
2022/01/16 07:11:01;;;;;;;22.97;12.00;;;;;;;-1.76;100.00;96986.47;5053799;28;20425;-75
2022/01/16 07:13:29;;;;;;;18.63;10.63;;;;;;;-1.74;100.00;96982.59;5069144;28;20441;-76
2022/01/16 07:15:56;;;;;;;23.77;13.90;;;;;;;-1.81;100.00;96977.56;5052225;28;20463;-76
2022/01/16 07:18:23;;;;;;;17.80;10.87;;;;;;;-1.83;100.00;96989.19;5053910;28;20453;-76
2022/01/16 07:20:50;;;;;;;16.97;10.30;;;;;;;-2.29;100.00;96925.34;5036064;28;20476;-75
2022/01/16 07:23:17;;;;;;;21.10;12.07;;;;;;;-1.85;100.00;97006.78;5052445;28;20998;-75
2022/01/16 07:25:44;;;;;;;18.83;11.60;;;;;;;-2.04;100.00;96982.03;5051852;28;20996;-76
2022/01/16 07:28:11;;;;;;;14.90;10.47;;;;;;;-2.34;100.00;96938.19;5050779;28;20472;-75
2022/01/16 07:30:38;;;;;;;21.50;11.20;;;;;;;-1.92;100.00;96977.63;5051098;28;20433;-76
2022/01/16 07:33:07;;;;;;;21.80;11.07;;;;;;;-1.78;100.00;96994.47;5052788;28;20878;-76
2022/01/16 07:35:35;;;;;;;19.60;10.53;;;;;;;-2.42;100.00;96890.94;5051837;28;20533;-76
2022/01/16 07:38:07;;;;;;;24.00;12.40;;;;;;;-1.94;100.00;96977.06;5052098;28;20473;-75
2022/01/16 07:40:34;;;;;;;23.13;11.63;;;;;;;-1.80;100.00;97012.84;5034900;28;20511;-76
2022/01/16 07:43:01;;;;;;;34.30;22.17;;;;;;;-2.05;100.00;96973.47;5051772;28;20472;-76
2022/01/16 07:45:27;;;;;;;31.70;17.47;;;;;;;-1.89;100.00;97003.84;5051728;28;20868;-76
2022/01/16 07:47:54;;;;;;;17.97;13.57;;;;;;;-2.30;100.00;96929.75;5053381;28;20488;-76
2022/01/16 07:50:21;;;;;;;26.77;14.10;;;;;;;-2.09;100.00;96967.97;5069728;28;20441;-75
2022/01/16 07:52:48;;;;;;;32.50;15.47;;;;;;;-1.72;100.00;97014.28;5051778;28;20441;-76
2022/01/16 07:55:15;;;;;;;21.00;13.97;;;;;;;-2.38;100.00;96938.66;5036764;28;20437;-76
2022/01/16 07:57:42;;;;;;;22.07;11.57;;;;;;;-1.96;100.00;97012.78;5052496;28;20481;-75
2022/01/16 08:00:28;;;;;;;25.17;12.27;;;;;;;-2.01;100.00;97005.66;5054818;28;20425;-76
2022/01/16 08:02:57;;;;;;;17.40;10.10;;;;;;;-2.16;100.00;96988.03;5052404;28;20448;-75
2022/01/16 08:05:25;;;;;;;23.73;12.30;;;;;;;-2.73;100.00;96906.88;5054402;28;20457;-76
2022/01/16 08:07:51;;;;;;;23.67;14.37;;;;;;;-2.03;100.00;97014.69;5052623;28;20501;-76
2022/01/16 08:10:18;;;;;;;78.03;42.13;;;;;;;-2.27;100.00;96946.63;5051851;28;20440;-76
2022/01/16 08:12:45;;;;;;;63.63;33.43;;;;;;;-2.12;100.00;96968.44;5053290;28;20463;-76
2022/01/16 08:15:12;;;;;;;30.30;18.00;;;;;;;-2.39;100.00;96923.38;5052150;28;20487;-75
2022/01/16 08:17:38;;;;;;;24.60;13.80;;;;;;;-1.91;100.00;96974.00;5069011;28;20465;-76
2022/01/16 08:20:10;;;;;;;22.13;11.53;;;;;;;-1.87;100.00;96986.28;5068056;28;20433;-76
2022/01/16 08:22:38;;;;;;;26.03;13.20;;;;;;;-1.74;100.00;97002.56;5052254;28;20468;-76
2022/01/16 08:25:06;;;;;;;25.40;13.60;;;;;;;-1.69;100.00;97005.25;5052110;28;20493;-76
2022/01/16 08:27:33;;;;;;;19.90;11.13;;;;;;;-3.06;100.00;96828.06;5052142;28;20469;-76
2022/01/16 08:30:07;;;;;;;21.17;11.40;;;;;;;-1.99;100.00;96977.75;5068385;28;20508;-76
2022/01/16 08:32:34;;;;;;;22.73;12.20;;;;;;;-1.78;100.00;97025.56;5053391;28;20484;-75
2022/01/16 08:35:02;;;;;;;18.37;11.13;;;;;;;-1.90;100.00;97017.81;5052101;28;20440;-76
2022/01/16 08:37:28;;;;;;;25.83;10.70;;;;;;;-1.95;100.00;97009.16;5051331;28;20504;-76
2022/01/16 08:39:55;;;;;;;23.30;13.17;;;;;;;-2.02;100.00;96998.91;5053780;28;20463;-76
2022/01/16 08:42:22;;;;;;;21.93;13.20;;;;;;;-2.15;100.00;96988.81;5052647;28;20513;-76
2022/01/16 08:44:49;;;;;;;19.50;11.10;;;;;;;-2.07;100.00;96996.25;5055855;28;20433;-76
2022/01/16 08:47:18;;;;;;;24.13;12.83;;;;;;;-1.76;100.00;97035.69;5055798;28;20449;-76
2022/01/16 08:49:45;;;;;;;22.10;12.37;;;;;;;-1.88;100.00;97015.00;5038458;28;20488;-76
2022/01/16 08:52:13;;;;;;;23.03;11.17;;;;;;;-1.89;100.00;97005.66;5054860;28;20475;-75
2022/01/16 08:54:40;;;;;;;30.37;18.30;;;;;;;-1.75;100.00;97029.50;5053786;28;20487;-75
2022/01/16 08:57:07;;;;;;;102.63;52.43;;;;;;;-1.75;100.00;97032.09;5053913;28;20504;-75
2022/01/16 08:59:33;;;;;;;24.37;14.20;;;;;;;-2.04;100.00;96987.22;5070389;28;20494;-75
2022/01/16 09:02:00;;;;;;;39.93;23.63;;;;;;;-2.02;100.00;96985.19;5054015;28;20491;-75
2022/01/16 09:04:27;;;;;;;18.30;12.97;;;;;;;-1.76;100.00;97028.72;5053696;28;20444;-75
2022/01/16 09:06:54;;;;;;;27.97;17.10;;;;;;;-2.06;100.00;96997.03;5055091;28;20472;-75
2022/01/16 09:09:20;;;;;;;20.30;14.77;;;;;;;-1.72;100.00;97029.06;5070135;28;20536;-75
2022/01/16 09:11:47;;;;;;;18.67;9.60;;;;;;;-1.87;100.00;96998.44;5053692;28;21009;-75
2022/01/16 09:14:15;;;;;;;17.20;10.27;;;;;;;-1.74;100.00;97020.69;5053650;28;20441;-75
2022/01/16 09:16:42;;;;;;;22.80;11.70;;;;;;;-1.72;100.00;97021.28;5070370;28;21038;-76
2022/01/16 09:19:08;;;;;;;17.10;11.80;;;;;;;-1.86;100.00;97006.00;5053935;28;20830;-75
2022/01/16 09:21:36;;;;;;;18.27;10.40;;;;;;;-1.71;100.00;97021.03;5053210;28;20464;-75
2022/01/16 09:24:03;;;;;;;17.33;10.23;;;;;;;-1.83;100.00;96997.75;5055142;28;20520;-75
2022/01/16 09:26:29;;;;;;;12.50;7.63;;;;;;;-2.17;100.00;96941.63;5054672;28;21054;-75
2022/01/16 09:28:57;;;;;;;18.47;9.93;;;;;;;-1.80;100.00;97002.47;5054700;28;20437;-75
2022/01/16 09:31:24;;;;;;;17.90;9.93;;;;;;;-1.68;100.00;97020.59;5054585;28;20429;-75
2022/01/16 09:33:51;;;;;;;17.07;10.40;;;;;;;-1.93;100.00;96984.59;5053335;28;20516;-75
2022/01/16 09:36:17;;;;;;;14.57;8.13;;;;;;;-1.70;100.00;97011.47;5053107;28;20875;-75
2022/01/16 09:38:44;;;;;;;11.80;8.87;;;;;;;-1.71;100.00;97007.31;5054536;28;20432;-75
2022/01/16 09:41:11;;;;;;;21.43;13.63;;;;;;;-1.83;100.00;96989.19;5053144;28;20461;-75
2022/01/16 09:43:38;;;;;;;14.30;9.20;;;;;;;-1.60;100.00;97014.25;5054427;28;20476;-75
2022/01/16 09:46:05;;;;;;;17.83;11.77;;;;;;;-1.70;100.00;96998.50;5052629;28;21046;-75
2022/01/16 09:48:32;;;;;;;19.60;10.40;;;;;;;-1.53;100.00;97025.25;5052748;28;20465;-75
2022/01/16 09:51:00;;;;;;;19.50;11.20;;;;;;;-1.50;100.00;97028.16;5053242;28;20433;-75
2022/01/16 09:53:28;;;;;;;20.37;13.10;;;;;;;-1.84;100.00;96974.66;5053017;28;21324;-75
2022/01/16 09:55:55;;;;;;;30.00;16.73;;;;;;;-1.49;100.00;97031.53;5052512;28;20521;-75
2022/01/16 09:58:22;;;;;;;24.80;12.43;;;;;;;-1.47;100.00;97029.50;5052385;28;20500;-75
2022/01/16 10:00:52;;;;;;;14.30;10.13;;;;;;;-1.52;100.00;97004.28;5052741;28;20532;-75
2022/01/16 10:03:40;;;;;;;22.77;11.37;;;;;;;-1.46;100.00;97006.97;5052852;28;20461;-76
2022/01/16 10:06:13;;;;;;;18.10;11.77;;;;;;;-1.41;100.00;96994.88;5036239;28;20469;-75
2022/01/16 10:08:41;;;;;;;15.83;8.60;;;;;;;-1.58;100.00;96971.53;5052604;28;20455;-76
2022/01/16 10:11:30;;;;;;;21.53;14.30;;;;;;;-1.31;100.00;97009.84;5069072;28;20448;-76
2022/01/16 10:14:07;;;;;;;17.30;10.03;;;;;;;-1.44;100.00;97003.13;5052647;28;20433;-75
2022/01/16 10:16:40;;;;;;;20.27;11.57;;;;;;;-1.31;100.00;97010.63;5069492;28;20510;-75
2022/01/16 10:19:26;;;;;;;21.03;13.07;;;;;;;-1.27;100.00;97016.13;5069248;28;20548;-75
2022/01/16 10:22:00;;;;;;;14.40;8.20;;;;;;;-1.47;100.00;96990.63;5069087;28;20429;-75
2022/01/16 10:24:30;;;;;;;19.50;11.30;;;;;;;-1.31;100.00;97005.44;5053932;28;20417;-75
2022/01/16 10:27:10;;;;;;;15.67;9.27;;;;;;;-1.31;100.00;97008.03;5052257;28;20541;-75
2022/01/16 10:29:51;;;;;;;23.60;13.43;;;;;;;-1.33;100.00;97002.28;5052125;28;20502;-75
2022/01/16 10:32:27;;;;;;;26.10;14.33;;;;;;;-1.51;100.00;96968.78;5052280;28;20825;-75
2022/01/16 10:35:07;;;;;;;29.17;15.30;;;;;;;-1.45;100.00;96957.47;5051770;28;20441;-75
2022/01/16 10:37:34;;;;;;;22.77;13.20;;;;;;;-1.13;100.00;97006.25;5052155;28;20507;-75
2022/01/16 10:40:07;;;;;;;28.97;12.57;;;;;;;-1.39;100.00;96966.13;5053335;28;20494;-75
2022/01/16 10:42:34;;;;;;;25.00;14.37;;;;;;;-1.16;100.00;96991.16;5051897;28;20479;-75
2022/01/16 10:45:09;;;;;;;23.60;14.30;;;;;;;-1.08;100.00;97008.91;5053184;28;20858;-76
2022/01/16 10:47:51;;;;;;;14.00;9.93;;;;;;;-1.34;100.00;96984.34;5051749;28;20445;-75
2022/01/16 10:50:21;;;;;;;17.83;9.50;;;;;;;-1.33;100.00;96985.94;5068730;28;20442;-75
2022/01/16 10:52:52;;;;;;;30.03;18.63;;;;;;;-1.20;100.00;97011.59;5051942;28;20441;-75
2022/01/16 10:55:34;;;;;;;25.93;17.40;;;;;;;-1.46;100.00;96975.88;5051930;28;20528;-75
2022/01/16 10:58:04;;;;;;;24.80;14.43;;;;;;;-1.18;100.00;97003.56;5051322;28;20481;-76
2022/01/16 11:00:30;;;;;;;22.17;14.40;;;;;;;-1.34;100.00;96979.94;5068311;28;20445;-75
2022/01/16 11:03:01;;;;;;;25.27;15.43;;;;;;;-1.30;100.00;97001.03;5068313;28;20433;-76
2022/01/16 11:05:32;;;;;;;24.73;13.57;;;;;;;-1.36;100.00;96994.97;5051878;28;20556;-75
2022/01/16 11:08:01;;;;;;;35.90;18.97;;;;;;;-1.32;100.00;96993.50;5051822;28;20515;-76
2022/01/16 11:10:31;;;;;;;37.87;20.53;;;;;;;-1.12;100.00;97016.38;5052827;28;20485;-75
2022/01/16 11:13:13;;;;;;;36.03;21.73;;;;;;;-1.12;100.00;96994.84;5052050;28;20799;-76
2022/01/16 11:15:42;;;;;;;35.63;22.40;;;;;;;-1.19;100.00;96989.81;5068615;28;20479;-76
2022/01/16 11:18:10;;;;;;;38.10;22.47;;;;;;;-1.23;100.00;96975.72;5054112;28;20465;-76
2022/01/16 11:20:38;;;;;;;38.17;24.80;;;;;;;-1.18;100.00;96983.59;5052409;28;20999;-76
2022/01/16 11:23:16;;;;;;;30.63;18.83;;;;;;;-1.17;100.00;96974.00;5052561;28;20834;-76
2022/01/16 11:25:44;;;;;;;37.40;20.97;;;;;;;-1.29;100.00;96968.91;5052484;28;20453;-75
2022/01/16 11:28:17;;;;;;;37.70;21.50;;;;;;;-1.13;100.00;97006.25;5051342;28;20484;-76
2022/01/16 11:30:50;;;;;;;37.57;21.83;;;;;;;-1.36;100.00;96945.69;5051066;28;20418;-75
2022/01/16 11:33:21;;;;;;;36.30;21.90;;;;;;;-0.97;100.00;97010.66;5067488;28;20421;-76
2022/01/16 11:35:52;;;;;;;46.43;23.63;;;;;;;-1.53;100.00;96926.75;5068030;28;20790;-76
2022/01/16 11:38:21;;;;;;;36.07;20.30;;;;;;;-1.27;100.00;96978.00;5050989;28;20519;-76
2022/01/16 11:40:51;;;;;;;37.07;19.73;;;;;;;-1.33;100.00;96972.97;5050918;28;20528;-75
2022/01/16 11:43:18;;;;;;;48.13;25.17;;;;;;;-1.11;100.00;97015.34;5051054;28;20437;-76
2022/01/16 11:45:51;;;;;;;46.43;24.60;;;;;;;-1.12;100.00;97013.00;5050845;28;20538;-76
2022/01/16 11:48:31;;;;;;;61.83;27.47;;;;;;;-1.18;100.00;97025.13;5050647;28;20465;-76
2022/01/16 11:51:38;;;;;;;39.73;22.57;;;;;;;-1.13;100.00;97019.22;5050603;28;20473;-76
2022/01/16 11:54:23;;;;;;;38.40;19.80;;;;;;;-1.16;100.00;97022.28;5050977;28;20812;-76
2022/01/16 11:56:53;;;;;;;41.33;19.23;;;;;;;-1.18;100.00;97019.94;5051186;28;20453;-75
2022/01/16 11:59:21;;;;;;;53.80;22.90;;;;;;;-1.15;100.00;97029.03;5051201;28;20437;-75
2022/01/16 12:02:10;;;;;;;44.30;25.03;;;;;;;-1.13;100.00;97027.78;5067385;28;20523;-75